• Join FlightAware (Why Join?)
  • Login
  • US Flag 
02:22PM EDT


 

Airport Tracker/Info


-or-


 

Live Flight TrackerFlight Track Log ✈ AAL1212 ✈ 17-Jun-2014 ✈ KSDF - KDFW

Flight Track Log - Related Links

Times and Time Zones

All times are in EDT time to prevent confusion due to time zone crossing. See the AAL1212 flight status page for this flight to view local times or setup timezone preferences in your user account.

Time Position Orientation Groundspeed Altitude Reporting Facility
EDT Latitude Longitude Course Direction KTS MPH feet Rate Location/Type
03:38PM 38.0706 -85.7922 264° West 302 348 5,700  Level Indianapolis Center
03:39PM 38.0294 -86.1040 244° Southwest  Level Estimated
03:39PM 38.0992 -85.8806 292° West 268 308 8,900  Level Indianapolis Center
03:40PM 38.0500 -86.2467 270° West  Level FlightAware Approximate
03:40PM 38.1094 -85.9794 278° West 282 325 11,000  Level Indianapolis Center
03:41PM 38.0386 -86.3828 264° West  Level FlightAware Approximate
03:41PM 38.0983 -86.0967 263° West 316 364 12,800  Level Indianapolis Center
03:42PM 38.0267 -86.5189 264° West  Level FlightAware Approximate
03:43PM 38.0149 -86.6551 264° West  Level FlightAware Approximate
03:43PM 38.0850 -86.2339 263° West 374 430 15,200  Level Indianapolis Center
03:44PM 38.0035 -86.7914 264° West  Level FlightAware Approximate
03:44PM 38.0722 -86.3714 263° West 388 447 17,700  Level Indianapolis Center
03:45PM 38.0308 -86.5089 249° West 416 479 19,800 1,920 Climbing Indianapolis Center
03:46PM 37.9736 -86.6411 241° Southwest 421 484 21,800 1,980 Climbing Indianapolis Center
03:47PM 37.9014 -86.8072 241° Southwest 439 505 24,000 1,740 Climbing Indianapolis Center
03:48PM 37.8394 -86.9500 241° Southwest 451 519 25,500 1,740 Climbing Indianapolis Center
03:49PM 37.7742 -87.0958 241° Southwest 465 535 27,600 2,280 Climbing Indianapolis Center
03:50PM 37.7083 -87.2481 241° Southwest 461 531 30,300 1,980 Climbing Indianapolis Center
03:51PM 37.6492 -87.3836 241° Southwest 445 512 31,700 1,200 Climbing Indianapolis Center
03:52PM 37.5889 -87.5189 241° Southwest 444 511 32,800 600 Climbing Indianapolis Center
03:53PM 37.5275 -87.6544 240° Southwest 444 511 33,000 360 Climbing Indianapolis Center
03:54PM 37.4681 -87.7886 241° Southwest 440 506 33,600 720 Climbing Indianapolis Center
03:55PM 37.4078 -87.9225 240° Southwest 440 506 34,600 900 Climbing Indianapolis Center
03:56PM 37.3367 -88.0792 240° Southwest 436 502 35,600 660 Climbing Memphis Center
03:57PM 37.2783 -88.2103 241° Southwest 435 501 36,000 180 Climbing Memphis Center
03:58PM 37.2186 -88.3389 240° Southwest 430 495 36,000  Level Memphis Center
03:59PM 37.1592 -88.4694 240° Southwest 430 495 36,000  Level Memphis Center
04:00PM 37.1000 -88.5994 240° Southwest 430 495 36,000  Level Memphis Center
04:01PM 37.0286 -88.7531 240° Southwest 430 495 36,000  Level Memphis Center
04:02PM 36.9678 -88.8811 239° Southwest 430 495 36,000  Level Memphis Center
04:03PM 36.9089 -89.0097 240° Southwest 430 495 36,000  Level Memphis Center
04:04PM 36.8433 -89.1350 237° Southwest 430 495 36,000  Level Memphis Center
04:05PM 36.7772 -89.2572 236° Southwest 430 495 36,000  Level Memphis Center
04:06PM 36.7114 -89.3800 236° Southwest 430 495 36,000  Level Memphis Center
04:07PM 36.6325 -89.5275 236° Southwest 430 495 36,000  Level Memphis Center
04:08PM 36.5661 -89.6506 236° Southwest 430 495 36,000  Level Memphis Center
04:09PM 36.4983 -89.7728 235° Southwest 430 495 36,000  Level Memphis Center
04:11PM 36.4314 -89.8936 235° Southwest 430 495 36,000  Level Memphis Center
04:12PM 36.3503 -90.0397 235° Southwest 430 495 36,000  Level Memphis Center
04:13PM 36.2817 -90.1622 235° Southwest 430 495 36,000  Level Memphis Center
04:14PM 36.2125 -90.2839 235° Southwest 431 496 36,000  Level Memphis Center
04:15PM 36.1453 -90.4061 236° Southwest 431 496 36,000  Level Memphis Center
04:16PM 36.0764 -90.5283 235° Southwest 431 496 36,000  Level Memphis Center
04:17PM 36.0086 -90.6492 235° Southwest 431 496 36,000  Level Memphis Center
04:18PM 35.9258 -90.7953 235° Southwest 431 496 36,000  Level Memphis Center
04:19PM 35.8572 -90.9172 235° Southwest 431 496 36,000  Level Memphis Center
04:20PM 35.8008 -91.0394 240° Southwest 420 483 36,000  Level Memphis Center
04:21PM 35.7800 -91.1819 260° West 424 488 36,000  Level Memphis Center
04:22PM 35.7650 -91.3244 263° West 424 488 36,000  Level Memphis Center
04:23PM 35.7469 -91.4717 261° West 422 486 36,000  Level Memphis Center
04:24PM 35.7292 -91.6114 261° West 419 482 36,000  Level Memphis Center
04:25PM 35.7142 -91.7508 262° West 416 479 36,000  Level Memphis Center
04:26PM 35.6944 -91.9158 262° West 411 473 36,000  Level Memphis Center
04:27PM 35.6781 -92.0528 262° West 410 472 36,000  Level Memphis Center
04:28PM 35.6611 -92.1892 261° West 407 468 36,000  Level Memphis Center
04:29PM 35.6444 -92.3258 262° West 407 468 36,000  Level Memphis Center
04:30PM 35.6269 -92.4636 261° West 408 470 36,000  Level Memphis Center
04:31PM 35.6072 -92.6286 262° West 408 470 36,000  Level Memphis Center
04:32PM 35.5908 -92.7614 261° West 408 470 36,000  Level Memphis Center
04:33PM 35.5742 -92.8964 261° West 408 470 36,000  Level Memphis Center
04:34PM 35.5578 -93.0322 262° West 407 468 36,000  Level Memphis Center
04:35PM 35.5411 -93.1692 262° West 407 468 36,000  Level Memphis Center
04:36PM 35.5111 -93.3297 257° West 403 464 36,000  Level Memphis Center
04:37PM 35.4669 -93.4522 246° West 404 465 36,000  Level Memphis Center
04:38PM 35.4225 -93.5772 246° West 404 465 36,000  Level Memphis Center
04:39PM 35.3700 -93.7219 246° West 404 465 36,000  Level Memphis Center
04:41PM 35.3242 -93.8481 246° West 404 465 36,000  Level Memphis Center
04:42PM 35.2772 -93.9761 246° West 405 466 36,000  Level Memphis Center
04:43PM 35.2314 -94.1028 246° West 408 470 36,000  Level Memphis Center
04:44PM 35.1850 -94.2289 246° West 408 470 36,000  Level Memphis Center
04:45PM 35.1350 -94.3611 245° Southwest 408 470 36,000  Level Memphis Center
04:46PM 35.0892 -94.4869 246° West 409 471 36,000  Level Memphis Center
04:47PM 35.0422 -94.6119 245° Southwest 409 471 36,000  Level Memphis Center
04:48PM 34.9594 -94.7389 232° Southwest 408 470 36,000  Level Memphis Center
04:49PM 34.8742 -94.8317 222° Southwest 410 472 36,000  Level Memphis Center
04:50PM 34.8056 -94.9056 221° Southwest 413 475 36,000  Level Fort Worth Center
04:51PM 34.7225 -94.9961 222° Southwest 409 471 36,000 -1,200 Level Fort Worth Center
04:52PM 34.6381 -95.0869 222° Southwest 407 468 33,500 -3,120 Descending Fort Worth Center
04:53PM 34.5444 -95.1842 221° Southwest 421 484 29,600 -3,720 Descending Fort Worth Center
04:54PM 34.4508 -95.2847 222° Southwest 452 520 25,800 -2,760 Descending Fort Worth Center
04:55PM 34.3558 -95.3847 221° Southwest 456 525 24,000 -900 Descending Fort Worth Center
04:56PM 34.2436 -95.5042 221° Southwest 453 521 24,000  Level Fort Worth Center
04:57PM 34.1586 -95.5908 220° Southwest 446 513 24,000 -240 Level Fort Worth Center
04:58PM 34.0503 -95.7053 221° Southwest 448 516 23,600 -1,620 Descending Fort Worth Center
04:59PM 33.9592 -95.8025 222° Southwest 443 510 20,700 -2,700 Descending Fort Worth Center
05:00PM 33.8694 -95.8925 220° Southwest 427 491 18,100 -2,280 Descending Fort Worth Center
05:01PM 33.7700 -95.9983 222° Southwest 413 475 16,000 -1,680 Descending Fort Worth Center
05:02PM 33.6828 -96.0875 220° Southwest 414 476 14,600 -1,320 Descending Fort Worth Center
05:03PM 33.5900 -96.1833 221° Southwest 411 473 13,300 -1,260 Descending Fort Worth Center
05:04PM 33.5092 -96.2689 221° Southwest 391 450 12,100 -1,140 Descending Fort Worth Center
05:05PM 33.4389 -96.3542 225° Southwest 356 410 11,000 -840 Descending Fort Worth Center
05:06PM 33.3775 -96.4281 225° Southwest 292 336 10,400 -1,080 Descending Fort Worth Center
05:07PM 33.3222 -96.4939 225° Southwest 283 326 8,800 -1,620 Descending Fort Worth Center
05:08PM 33.2756 -96.5736 235° Southwest 275 316 7,100 -1,500 Descending Fort Worth Center
05:09PM 33.2356 -96.6469 237° Southwest 269 310 5,700 -1,020 Descending Fort Worth Center
05:10PM 33.1939 -96.7239 237° Southwest 260 299 5,000 -360 Descending Fort Worth Center
05:11PM 33.1542 -96.7928 235° Southwest 254 292 5,000 -480 Level Fort Worth Center
05:12PM 33.1106 -96.8719 237° Southwest 257 296 4,100 -1,020 Descending Fort Worth Center
05:13PM 33.0744 -96.9464 240° Southwest 262 302 3,000 -540 Descending Fort Worth Center
05:14PM 33.0306 -96.9900 220° Southwest 210 242 3,000 -600 Level Fort Worth Center
05:15PM 32.9814 -97.0106 199° South 170 196 1,800 -780 Descending Fort Worth Center
05:16PM 32.9453 -97.0106 180° South 131 151 1,400 -480 Descending Fort Worth Center
05:17PM 32.9111 -97.0094 178° South 123 142 800 -600 Descending Fort Worth Center